»·PEaware :: N776CE KRNO-KSBP

N776CE :: KRNO-KSBP

FLIGHT INFORMATION

Flight Status: Arrived
Operator: Privately registered:
United States
More flights under this callsign
Pilot: Carl E. (19279)
Aircraft: SOCATA TBM-900
(TBM9)
More flights by this aircraft type
Origin: KRNO Reno/Tahoe Intl
United States
Destination: KSBP San Luis Co Regl
United States
More flights between these airports :: More routes between these airports
Route: +SPLTM4 RYANN CZQ WYNNR
File this flight plan on PilotEdge
Remarks:
Altitude:
(Current/Filed)
19,000ft
Speed:
(Current/Filed)
300kts
Departed: 24-Nov-18 09:46 AM
Arrived: 24-Nov-18 12:48 PM
Distance/Time
Traveled:
259nm/3:01
Distance/Time
To Go:
Arrived

Flight Plot

Page will automatically refresh every two minutes.

Flight plan parsing failed; only flown route is shown


Map Options




Map Legend


Flown Route
Filed Route
Departure Airport
Arrival Airport
Navaid (VOR, NDB)
Fix

Horizontal Profiles

Position Reports

Time Latitude Longitude Heading Altitude Ground
Speed
24-Nov-18 09:18 39.505353 -119.765247 90 4418ft 0kts
24-Nov-18 09:19 39.505353 -119.765247 90 4418ft 0kts
24-Nov-18 09:20 39.505353 -119.765247 90 4418ft 0kts
24-Nov-18 09:21 39.505353 -119.765247 90 4418ft 0kts
24-Nov-18 09:22 39.505353 -119.765247 90 4418ft 0kts
24-Nov-18 09:23 39.505353 -119.765247 90 4418ft 0kts
24-Nov-18 09:24 39.505353 -119.765247 90 4418ft 0kts
24-Nov-18 09:25 39.505353 -119.765247 90 4418ft 0kts
24-Nov-18 09:26 39.505353 -119.765247 90 4418ft 0kts
24-Nov-18 09:27 39.505353 -119.765247 90 4418ft 0kts
24-Nov-18 09:28 39.505353 -119.765247 90 4418ft 0kts
24-Nov-18 09:29 39.505353 -119.765247 90 4418ft 0kts
24-Nov-18 09:30 39.505353 -119.765247 90 4418ft 0kts
24-Nov-18 09:31 39.505353 -119.765247 90 4418ft 0kts
24-Nov-18 09:32 39.505353 -119.765247 90 4418ft 0kts
24-Nov-18 09:33 39.505353 -119.765247 90 4418ft 0kts
24-Nov-18 09:34 39.505353 -119.765247 90 4418ft 0kts
24-Nov-18 09:35 39.505353 -119.765247 90 4418ft 0kts
24-Nov-18 09:36 39.505353 -119.765247 90 4418ft 0kts
24-Nov-18 09:37 39.504512 -119.765100 192 4418ft 7kts
24-Nov-18 09:38 39.503511 -119.765779 179 4418ft 15kts
24-Nov-18 09:39 39.501183 -119.765785 178 4418ft 15kts
24-Nov-18 09:40 39.498979 -119.765793 178 4418ft 13kts
24-Nov-18 09:41 39.497467 -119.765202 177 4418ft 10kts
24-Nov-18 09:42 39.495927 -119.765191 180 4418ft 11kts
24-Nov-18 09:43 39.494161 -119.765186 180 4418ft 12kts
24-Nov-18 09:44 39.492233 -119.765196 181 4418ft 13kts
24-Nov-18 09:45 39.490306 -119.765201 179 4418ft 12kts
24-Nov-18 09:46 39.489237 -119.765717 268 4418ft 0kts
24-Nov-18 09:47 39.489236 -119.765844 269 4418ft 5kts
24-Nov-18 09:48 39.489544 -119.766795 358 4418ft 0kts
24-Nov-18 09:49 39.495795 -119.766917 355 4471ft 105kts
24-Nov-18 09:50 39.513644 -119.766609 357 5019ft 142kts
24-Nov-18 09:51 39.533914 -119.765983 357 5957ft 142kts
24-Nov-18 09:52 39.549618 -119.757281 52 6719ft 162kts
24-Nov-18 09:53 39.547862 -119.727685 104 7864ft 179kts
24-Nov-18 09:54 39.541588 -119.692596 96 8019ft 204kts
24-Nov-18 09:55 39.537831 -119.658289 93 8004ft 204kts
24-Nov-18 09:56 39.534593 -119.621430 92 8009ft 210kts
24-Nov-18 09:57 39.519412 -119.589926 138 8684ft 191kts
24-Nov-18 09:58 39.498044 -119.565670 141 9432ft 198kts
24-Nov-18 09:59 39.476687 -119.542156 142 10543ft 198kts
24-Nov-18 10:00 39.455911 -119.519526 143 11582ft 201kts
24-Nov-18 10:01 39.435834 -119.497740 143 12605ft 204kts
24-Nov-18 10:02 39.414713 -119.474866 143 13596ft 209kts
24-Nov-18 10:03 39.393349 -119.451720 143 14573ft 213kts
24-Nov-18 10:04 39.371856 -119.428462 143 15487ft 218kts
24-Nov-18 10:05 39.349774 -119.404588 143 16360ft 224kts
24-Nov-18 10:06 39.330407 -119.383657 143 17168ft 228kts
24-Nov-18 10:07 39.311513 -119.363248 143 17930ft 231kts
24-Nov-18 10:08 39.292248 -119.342466 144 18651ft 235kts
24-Nov-18 10:09 39.274322 -119.323156 143 19032ft 250kts
24-Nov-18 10:10 39.251676 -119.298797 143 19045ft 278kts
24-Nov-18 10:11 39.223100 -119.286459 193 19033ft 276kts
24-Nov-18 10:12 39.192835 -119.279405 150 19044ft 308kts
24-Nov-18 10:13 39.161742 -119.263438 188 19017ft 294kts
24-Nov-18 10:14 39.134039 -119.279528 215 19054ft 279kts
24-Nov-18 10:15 39.103337 -119.293008 200 19042ft 287kts
24-Nov-18 10:16 39.070986 -119.302228 197 19034ft 284kts
24-Nov-18 10:17 39.039573 -119.310144 197 19034ft 282kts
24-Nov-18 10:18 39.007422 -119.318018 196 19034ft 283kts
24-Nov-18 10:19 38.974568 -119.325975 196 19036ft 285kts
24-Nov-18 10:20 38.941826 -119.333871 195 19037ft 287kts
24-Nov-18 10:21 38.910119 -119.341508 195 19038ft 290kts
24-Nov-18 10:22 38.879691 -119.348827 194 19033ft 292kts
24-Nov-18 10:23 38.845605 -119.356976 194 19034ft 293kts
24-Nov-18 10:24 38.812745 -119.364848 194 19034ft 294kts
24-Nov-18 10:25 38.781632 -119.372305 194 19034ft 294kts
24-Nov-18 10:26 38.747853 -119.380395 194 19034ft 295kts
24-Nov-18 10:27 38.714718 -119.388322 194 19034ft 295kts
24-Nov-18 10:28 38.682246 -119.396084 194 19088ft 294kts
24-Nov-18 10:29 38.650215 -119.403738 194 19089ft 294kts
24-Nov-18 10:30 38.617247 -119.411604 194 19089ft 295kts
24-Nov-18 10:31 38.584506 -119.419409 194 19089ft 295kts
24-Nov-18 10:32 38.552011 -119.427149 194 19089ft 295kts
24-Nov-18 10:33 38.519159 -119.434967 194 19087ft 295kts
24-Nov-18 10:34 38.487306 -119.442541 194 19085ft 295kts
24-Nov-18 10:35 38.453820 -119.450494 194 19083ft 295kts
24-Nov-18 10:36 38.420128 -119.458489 194 19082ft 295kts
24-Nov-18 10:37 38.388665 -119.465949 194 19081ft 295kts
24-Nov-18 10:38 38.357810 -119.473258 194 19083ft 295kts
24-Nov-18 10:39 38.325272 -119.480958 194 19084ft 295kts
24-Nov-18 10:40 38.298068 -119.487392 194 19085ft 295kts
24-Nov-18 10:41 38.260601 -119.496244 194 19087ft 295kts
24-Nov-18 10:42 38.235011 -119.502285 194 19088ft 296kts
24-Nov-18 10:43 38.196000 -119.511484 194 19097ft 295kts
24-Nov-18 10:44 38.169617 -119.517702 194 19104ft 295kts
24-Nov-18 10:45 38.131701 -119.526625 194 19114ft 295kts
24-Nov-18 10:46 38.106131 -119.532643 194 19120ft 295kts
24-Nov-18 10:47 38.068814 -119.541409 194 19128ft 295kts
24-Nov-18 10:48 38.042677 -119.547549 194 19129ft 296kts
24-Nov-18 10:49 38.004477 -119.556510 194 19129ft 296kts
24-Nov-18 10:50 37.978156 -119.562678 194 19130ft 296kts
24-Nov-18 10:51 37.949252 -119.569448 194 19130ft 296kts
24-Nov-18 10:52 37.916611 -119.577084 194 19131ft 296kts
24-Nov-18 10:53 37.889109 -119.583515 194 19127ft 296kts
24-Nov-18 10:54 37.859586 -119.590407 194 19125ft 296kts
24-Nov-18 10:55 37.827520 -119.597892 194 19125ft 296kts
24-Nov-18 10:56 37.793442 -119.605838 194 19125ft 296kts
24-Nov-18 10:57 37.760794 -119.613445 194 19124ft 296kts
24-Nov-18 10:58 37.726977 -119.621207 194 19124ft 296kts
24-Nov-18 10:59 37.692647 -119.629188 194 19125ft 296kts
24-Nov-18 11:00 37.660828 -119.636667 194 19125ft 296kts
24-Nov-18 11:01 37.628520 -119.644189 194 19125ft 296kts
24-Nov-18 11:02 37.596947 -119.651516 194 19126ft 296kts
24-Nov-18 11:03 37.566097 -119.658668 194 19129ft 296kts
24-Nov-18 11:04 37.533991 -119.666101 193 19129ft 296kts
24-Nov-18 11:05 37.501860 -119.673534 193 19129ft 297kts
24-Nov-18 11:06 37.470591 -119.680763 193 19129ft 297kts
24-Nov-18 11:07 37.438562 -119.688159 193 19129ft 297kts
24-Nov-18 11:08 37.406998 -119.695442 193 19129ft 297kts
24-Nov-18 11:09 37.374406 -119.702956 194 19129ft 297kts
24-Nov-18 11:10 37.341400 -119.710557 193 19130ft 297kts
24-Nov-18 11:11 37.308729 -119.718075 193 19130ft 297kts
24-Nov-18 11:12 37.276055 -119.725590 193 19130ft 297kts
24-Nov-18 11:13 37.244536 -119.732830 194 19120ft 297kts
24-Nov-18 11:14 37.211659 -119.740374 193 19120ft 295kts
24-Nov-18 11:15 37.178831 -119.747899 194 19121ft 295kts
24-Nov-18 11:16 37.145591 -119.755517 194 19121ft 294kts
24-Nov-18 11:17 37.112149 -119.763176 194 19121ft 293kts
24-Nov-18 11:18 37.081135 -119.770278 193 19121ft 293kts
24-Nov-18 11:19 37.049331 -119.777548 193 19121ft 293kts
24-Nov-18 11:20 37.013498 -119.785731 193 19122ft 293kts
24-Nov-18 11:21 36.980114 -119.793347 193 19122ft 294kts
24-Nov-18 11:22 36.947111 -119.800865 193 19122ft 294kts
24-Nov-18 11:23 36.914262 -119.808336 193 19122ft 295kts
24-Nov-18 11:24 36.884649 -119.815140 193 19115ft 294kts
24-Nov-18 11:25 36.852235 -119.822569 193 19115ft 293kts
24-Nov-18 11:26 36.821913 -119.829568 193 19115ft 293kts
24-Nov-18 11:27 36.791219 -119.836660 193 19114ft 293kts
24-Nov-18 11:28 36.761269 -119.843579 193 19113ft 293kts
24-Nov-18 11:29 36.730848 -119.850600 193 19112ft 293kts
24-Nov-18 11:30 36.700429 -119.857617 193 19111ft 293kts
24-Nov-18 11:31 36.669742 -119.864687 193 19110ft 293kts
24-Nov-18 11:32 36.639722 -119.871600 193 19109ft 293kts
24-Nov-18 11:33 36.609769 -119.878493 193 19109ft 293kts
24-Nov-18 11:34 36.581222 -119.885055 193 19110ft 293kts
24-Nov-18 11:35 36.553540 -119.891415 193 19111ft 293kts
24-Nov-18 11:36 36.525788 -119.897786 193 19112ft 293kts
24-Nov-18 11:37 36.499235 -119.903876 193 19113ft 293kts
24-Nov-18 11:38 36.470600 -119.910443 193 19113ft 293kts
24-Nov-18 11:39 36.440755 -119.917277 193 19114ft 293kts
24-Nov-18 11:40 36.411781 -119.923911 193 19115ft 293kts
24-Nov-18 11:41 36.381679 -119.930793 193 19116ft 292kts
24-Nov-18 11:42 36.351034 -119.937796 193 19117ft 292kts
24-Nov-18 11:43 36.322204 -119.944367 193 18826ft 280kts
24-Nov-18 11:44 36.291469 -119.951384 193 18095ft 278kts
24-Nov-18 11:45 36.261777 -119.958155 193 17388ft 274kts
24-Nov-18 11:46 36.233657 -119.964561 193 16706ft 270kts
24-Nov-18 11:47 36.205307 -119.971017 193 16011ft 267kts
24-Nov-18 11:48 36.176688 -119.977539 193 15317ft 269kts
24-Nov-18 11:49 36.147858 -119.984093 193 15007ft 272kts
24-Nov-18 11:50 36.119183 -119.990607 193 15002ft 271kts
24-Nov-18 11:51 36.090376 -119.997143 193 15001ft 270kts
24-Nov-18 11:52 36.062270 -120.003517 193 15002ft 269kts
24-Nov-18 11:53 36.034210 -120.009876 193 15003ft 269kts
24-Nov-18 11:54 36.005808 -120.016308 193 15003ft 269kts
24-Nov-18 11:55 35.977728 -120.022663 193 15004ft 269kts
24-Nov-18 11:56 35.949466 -120.029054 193 15005ft 269kts
24-Nov-18 11:57 35.921942 -120.035275 193 15005ft 269kts
24-Nov-18 11:58 35.894233 -120.041531 193 15003ft 269kts
24-Nov-18 11:59 35.865990 -120.047905 193 15000ft 268kts
24-Nov-18 12:00 35.836813 -120.054484 193 15001ft 268kts
24-Nov-18 12:01 35.808401 -120.060885 193 15004ft 268kts
24-Nov-18 12:02 35.781047 -120.067045 193 15007ft 268kts
24-Nov-18 12:03 35.754922 -120.072924 193 15009ft 268kts
24-Nov-18 12:04 35.727209 -120.079155 193 15012ft 267kts
24-Nov-18 12:05 35.699372 -120.085410 193 15014ft 268kts
24-Nov-18 12:06 35.671590 -120.091648 193 15016ft 268kts
24-Nov-18 12:07 35.644167 -120.097802 193 15017ft 268kts
24-Nov-18 12:08 35.617077 -120.103877 193 15012ft 264kts
24-Nov-18 12:09 35.589886 -120.109958 193 14490ft 258kts
24-Nov-18 12:10 35.563421 -120.115891 193 13721ft 260kts
24-Nov-18 12:11 35.536579 -120.121897 193 12933ft 259kts
24-Nov-18 12:12 35.510351 -120.127762 193 12169ft 256kts
24-Nov-18 12:13 35.484295 -120.133595 193 11388ft 253kts
24-Nov-18 12:14 35.458885 -120.139267 193 10588ft 249kts
24-Nov-18 12:15 35.433837 -120.144844 193 9928ft 238kts
24-Nov-18 12:16 35.410211 -120.150106 193 9312ft 227kts
24-Nov-18 12:17 35.386728 -120.155352 193 8994ft 232kts
24-Nov-18 12:18 35.363128 -120.160611 193 8987ft 232kts
24-Nov-18 12:19 35.339457 -120.165883 193 8982ft 228kts
24-Nov-18 12:20 35.316429 -120.170989 193 8981ft 223kts
24-Nov-18 12:21 35.295544 -120.181801 212 8936ft 220kts
24-Nov-18 12:22 35.275197 -120.195058 212 8972ft 222kts
24-Nov-18 12:23 35.254318 -120.208704 212 8972ft 226kts
24-Nov-18 12:24 35.236370 -120.227015 249 8841ft 222kts
24-Nov-18 12:25 35.226950 -120.255093 252 8615ft 228kts
24-Nov-18 12:26 35.217947 -120.282504 252 7973ft 218kts
24-Nov-18 12:27 35.209223 -120.309071 252 7221ft 208kts
24-Nov-18 12:28 35.200877 -120.334625 252 6537ft 196kts
24-Nov-18 12:29 35.192843 -120.359211 252 5934ft 184kts
24-Nov-18 12:30 35.185473 -120.381893 252 5360ft 177kts
24-Nov-18 12:31 35.178592 -120.403294 252 4690ft 179kts
24-Nov-18 12:32 35.171979 -120.424252 252 4101ft 174kts
24-Nov-18 12:33 35.165221 -120.445917 252 3542ft 171kts
24-Nov-18 12:34 35.158693 -120.467079 252 3038ft 167kts
24-Nov-18 12:35 35.153615 -120.486371 273 3031ft 142kts
24-Nov-18 12:36 35.158733 -120.502399 295 2861ft 118kts
24-Nov-18 12:37 35.164233 -120.514079 306 2856ft 90kts
24-Nov-18 12:38 35.169948 -120.523655 306 2635ft 91kts
24-Nov-18 12:39 35.175782 -120.533320 306 2431ft 88kts
24-Nov-18 12:40 35.181466 -120.543100 304 2212ft 88kts
24-Nov-18 12:41 35.187278 -120.553256 304 2005ft 90kts
24-Nov-18 12:42 35.193061 -120.563383 304 1789ft 91kts
24-Nov-18 12:43 35.198660 -120.573191 304 1570ft 90kts
24-Nov-18 12:44 35.204167 -120.582838 304 1363ft 90kts
24-Nov-18 12:45 35.209803 -120.592711 304 1156ft 92kts
24-Nov-18 12:46 35.215242 -120.602248 304 931ft 86kts
24-Nov-18 12:47 35.220526 -120.611587 304 742ft 86kts
24-Nov-18 12:48 35.225827 -120.621075 305 552ft 85kts
24-Nov-18 12:49 35.230517 -120.628923 305 342ft 83kts
24-Nov-18 12:50 35.235955 -120.638563 303 214ft 46kts
24-Nov-18 12:51 35.237349 -120.641128 303 214ft 21kts
24-Nov-18 12:52 35.237800 -120.642597 267 214ft 6kts
24-Nov-18 12:53 35.237429 -120.643621 273 214ft 10kts
24-Nov-18 12:54 35.237422 -120.645090 269 214ft 9kts
24-Nov-18 12:55 35.237421 -120.646316 268 214ft 10kts
24-Nov-18 12:56 35.237455 -120.647349 320 214ft 0kts
24-Nov-18 12:57 35.237549 -120.647408 349 214ft 6kts
24-Nov-18 12:58 35.238031 -120.647194 84 214ft 0kts
24-Nov-18 12:59 35.238031 -120.647194 84 214ft 0kts
24-Nov-18 13:00 35.238031 -120.647194 84 214ft 0kts
24-Nov-18 13:01 35.238031 -120.647194 84 214ft 0kts
24-Nov-18 13:02 35.238031 -120.647194 84 214ft 0kts
24-Nov-18 13:03 35.238031 -120.647194 84 214ft 0kts
24-Nov-18 13:04 35.238031 -120.647194 84 214ft 0kts
24-Nov-18 13:05 35.238031 -120.647194 84 214ft 0kts

Navigation Log

Ident Type
Flight plan parsing failed, navigation log unavailable